Bookmark and Share
Track history (hours):
 

Maersk Iowa

More information available from US FCC via Universal Licensing System and Coast Guard Vessel Documentation Center.

Last reported at 2014-Apr-21 12:00 UTC. Time now 2014-Apr-23 09:37 UTC.
Position N 49°18' W 015°36'.

Length 292 m; draft 13 m.

Type: Ship. MMSI: 367606000.

Wind from 340 at 19 knots

Waves 1.0 meters (3 feet), 5 second period

Barometer 1004.0 mb
Air temperature 12.0 ° C
Visibility: greater than 10.8 NM
Dewpoint 10.2 ° C
Water temperature 11.0 ° C

NotesDate/timePositionNaut miles runAvg speedWind from/ knotsBaromVisibWave heightAir tempDewpointWater temp
2014-Apr-21 12:00N 49°18' W 015°36'55316.5 340 / 191004.010.8 1.012.010.211.0
2014-Apr-20 02:34N 50°14' W 001°24'1717.0
2014-Apr-20 01:34N 50°19' W 000°59'1514.9
2014-Apr-20 00:34N 50°24' W 000°37'1514.5
2014-Apr-19 23:33N 50°28' W 000°14'2115.0
2014-Apr-19 22:07N 50°34' E 000°18'916.1
2014-Apr-19 21:33N 50°37' E 000°31'1817.8
2014-Apr-19 20:34N 50°47' E 000°54'2418.6
2014-Apr-19 19:17N 51°02' E 001°23'1217.2
2014-Apr-19 18:34N 51°10' E 001°39'1615.8
2014-Apr-19 17:33N 51°22' E 001°55'1515.2
2014-Apr-19 16:33N 51°35' E 002°09'1615.2
2014-Apr-19 15:32N 51°46' E 002°25'5717.1
2014-Apr-19 12:13N 52°31' E 003°22'1218.2
2014-Apr-19 11:32N 52°41' E 003°36'1818.1
2014-Apr-19 10:33N 52°54' E 003°54'1717.2
2014-Apr-19 09:33N 53°06' E 004°15'1615.4
2014-Apr-19 08:33N 53°18' E 004°31'1515.0
2014-Apr-19 07:33N 53°31' E 004°44'1616.0
2014-Apr-19 06:33N 53°36' E 005°09'1717.3
2014-Apr-19 05:34N 53°42' E 005°37'1818.0
2014-Apr-19 04:33N 53°47' E 006°06'3817.9
2014-Apr-19 02:27N 53°56' E 007°08'1516.8
2014-Apr-19 01:34N 53°59' E 007°33'1313.3
2014-Apr-19 00:33N 53°52' E 007°52'1413.7
2014-Apr-18 23:33N 53°45' E 008°12'1413.6
2014-Apr-18 22:34N 53°37' E 008°30'1 1.2
2014-Apr-18 21:32N 53°36' E 008°31'0 0.0
2014-Apr-18 20:29N 53°36' E 008°31'0 0.0
2014-Apr-18 19:32N 53°36' E 008°31'0 0.0
2014-Apr-18 18:32N 53°36' E 008°31'0 0.0
2014-Apr-18 17:32N 53°36' E 008°31'0 0.0
2014-Apr-18 16:32N 53°36' E 008°31'0 0.0
2014-Apr-18 15:32N 53°36' E 008°31'0 0.0
2014-Apr-18 14:32N 53°36' E 008°31'0 0.0
2014-Apr-18 13:32N 53°36' E 008°31'0 0.0
2014-Apr-18 12:32N 53°36' E 008°31'0 0.0
2014-Apr-18 11:32N 53°36' E 008°31'0 0.0
2014-Apr-18 10:32N 53°36' E 008°31'0 0.0
2014-Apr-18 09:32N 53°36' E 008°31'0 0.0
2014-Apr-18 08:32N 53°36' E 008°31'0 0.0
2014-Apr-18 07:32N 53°36' E 008°31'0 0.0
2014-Apr-18 06:32N 53°36' E 008°31'0 0.0
2014-Apr-18 05:32N 53°36' E 008°31'0 0.0
2014-Apr-18 04:33N 53°36' E 008°31'4 3.9
2014-Apr-18 03:33N 53°38' E 008°26'1212.2
2014-Apr-18 02:33N 53°46' E 008°11'1414.2
2014-Apr-18 01:33N 53°53' E 007°49'7 6.8
2014-Apr-18 00:33N 53°53' E 007°37'3 3.5
2014-Apr-17 23:34N 53°54' E 007°32'1616.4
2014-Apr-17 22:33N 53°50' E 007°05'1919.3
2014-Apr-17 21:33N 53°47' E 006°32'2019.3
2014-Apr-17 20:31N 53°42' E 005°59'1819.2
2014-Apr-17 19:33N 53°36' E 005°30'1919.5
2014-Apr-17 18:33N 53°28' E 004°60'1918.6
2014-Apr-17 17:33N 53°18' E 004°34'2217.8
2014-Apr-17 16:20N 53°09' E 004°01'1621.1
2014-Apr-17 15:33N 52°59' E 003°39'2221.0
2014-Apr-17 14:31N 52°45' E 003°11'2920.4
2014-Apr-17 13:07N 52°27' E 002°35'1119.7
2014-Apr-17 12:33N 52°20' E 002°21'1919.0
2014-Apr-17 11:33N 52°07' E 001°57'1817.6
2014-Apr-17 10:33N 51°51' E 001°48'1211.5
2014-Apr-17 09:33N 51°56' E 001°31'9 8.2
2014-Apr-17 08:31N 51°58' E 001°18'0 0.0
2014-Apr-17 07:31N 51°58' E 001°18'0 0.0
2014-Apr-17 06:31N 51°58' E 001°18'0 0.0
2014-Apr-17 04:25N 51°58' E 001°18'0 0.0
2014-Apr-17 03:32N 51°58' E 001°18'0 0.0
2014-Apr-17 02:31N 51°58' E 001°18'0 0.0
2014-Apr-17 01:31N 51°58' E 001°18'0 0.0
2014-Apr-17 00:31N 51°58' E 001°18'0 0.0
2014-Apr-16 23:31N 51°58' E 001°18'0 0.0
2014-Apr-16 22:31N 51°58' E 001°18'0 0.0
2014-Apr-16 21:31N 51°58' E 001°18'0 0.0
2014-Apr-16 20:31N 51°58' E 001°18'0 0.0
2014-Apr-16 19:31N 51°58' E 001°18'0 0.0
2014-Apr-16 18:31N 51°58' E 001°18'0 0.0
2014-Apr-16 17:31N 51°58' E 001°18'0 0.0
2014-Apr-16 16:31N 51°58' E 001°18'0 0.0
2014-Apr-16 15:26N 51°58' E 001°18'1 1.5
2014-Apr-16 14:33N 51°56' E 001°19'10 9.6
2014-Apr-16 13:33N 51°54' E 001°34'1010.0
2014-Apr-16 12:33N 51°50' E 001°49'2119.6
2014-Apr-16 11:29N 51°56' E 002°22'4422.4
2014-Apr-16 09:30N 52°03' E 003°33'1516.0
2014-Apr-16 08:33N 52°02' E 003°57'6 5.7
2014-Apr-16 07:33N 51°57' E 004°03'0 0.0
2014-Apr-16 06:33N 51°57' E 004°03'0 0.0
2014-Apr-16 05:33N 51°57' E 004°03'0 0.0
2014-Apr-16 04:33N 51°57' E 004°03'0 0.0
2014-Apr-16 03:30N 51°57' E 004°03'0 0.0
2014-Apr-16 02:33N 51°57' E 004°03'0 0.0
2014-Apr-16 01:27N 51°57' E 004°03'0 0.0
2014-Apr-16 00:33N 51°57' E 004°03'0 0.0
2014-Apr-15 23:33N 51°57' E 004°03'0 0.0
2014-Apr-15 22:30N 51°57' E 004°03'0 0.0
2014-Apr-15 21:33N 51°57' E 004°03'0 0.0
2014-Apr-15 20:33N 51°57' E 004°03'0 0.0
2014-Apr-15 19:33N 51°57' E 004°03'0 0.0
2014-Apr-15 18:33N 51°57' E 004°03'0 0.0
2014-Apr-15 17:33N 51°57' E 004°03'0 0.0
2014-Apr-15 16:33N 51°57' E 004°03'0 0.0
2014-Apr-15 15:33N 51°57' E 004°03'0 0.0
2014-Apr-15 14:33N 51°57' E 004°03'0 0.0
2014-Apr-15 12:33N 51°57' E 004°03'0 0.0
2014-Apr-15 11:31N 51°57' E 004°03'0 0.0
2014-Apr-15 10:31N 51°57' E 004°03'0 0.0
2014-Apr-15 09:31N 51°57' E 004°03'1 0.8
2014-Apr-15 08:34N 51°58' E 004°04'6 5.5
2014-Apr-15 07:34N 51°60' E 003°56'7 7.3
2014-Apr-15 06:33N 51°58' E 003°44'1312.9
2014-Apr-15 05:32N 51°55' E 003°23'4214.3
2014-Apr-15 02:33N 51°35' E 002°23'1515.2
2014-Apr-15 01:33N 51°24' E 002°06'1515.1
2014-Apr-15 00:34N 51°13' E 001°49'1615.9
2014-Apr-14 23:34N 51°00' E 001°34'1919.0
2014-Apr-14 22:33N 50°43' E 001°21'3618.1
2014-Apr-14 20:33N 50°26' E 000°31'4020.2
2014-Apr-14 18:34N 50°15' W 000°30'2120.6
2014-Apr-14 17:34N 50°09' W 001°01'2020.0
2014-Apr-14 16:34N 50°04' W 001°31'2019.6
2014-Apr-14 15:33N 50°00' W 002°01'7922.1
2014-Apr-14 12:00N 49°42' W 004°00'22018.3 variable / 91029.010.8 0.512.0 6.111.0
2014-Apr-14 00:00N 49°18' W 009°36'23319.4 050 / 101027.0 5.4 1.013.0 7.312.0
2014-Apr-13 12:00N 48°54' W 015°30'22118.4 050 / 131029.0 5.4 1.013.0 7.312.0
2014-Apr-13 00:00N 48°18' W 021°00'44618.6 050 / 131029.0 5.4 1.011.0 5.013.0
2014-Apr-12 00:00N 46°12' W 031°30'   040 / 191025.0 2.2 1.512.0 8.314.0

Dump ship's entire track history

sailing weather and tide predictions

Maersk Iowa — KABL — position and weather